Weather at Yarraden station airstrip

Public forecast

Using degrees Celsius for public forecast. Weather courtesy of forecast.io.

Closest aviation weather report (METAR) to Yarraden station airstrip

Report is more than 6 hours old.

Closest report is Weipa Airport, 126.7 nm (234.7 km) NW. Retrieved 2022/07/05 13:13 UTC (22 hours ago):

YBWP 051313Z AUTO 18004KT 9999 // OVC025 22/20 Q1011

Closest aviation forecast (TAF) to Yarraden station airstrip

Closest forecast is Tindal Airport, 635.8 nm (1,177.6 km) W. Retrieved 2022/07/06 06:36 UTC (4 hours ago):

TAF YPTN 060505Z 0606/0706 11012KT CAVOK FM060900 14006KT CAVOK FM070000 11016KT CAVOK FM070300 11012KT CAVOK